createdAt,value
2023-01-07T00:01:21.894Z,101388.53
2023-01-07T00:03:50.377Z,101394.28
2023-01-07T00:06:22.750Z,101387.28
2023-01-07T00:08:52.505Z,101389.34
2023-01-07T00:11:24.974Z,101392.25
2023-01-07T00:13:53.927Z,101385.25
2023-01-07T00:16:23.616Z,101386.56
2023-01-07T00:18:52.560Z,101383.13
2023-01-07T00:21:21.814Z,101380.13
2023-01-07T00:23:49.306Z,101386.09
2023-01-07T00:26:18.677Z,101389.13
2023-01-07T00:28:48.219Z,101379.81
2023-01-07T00:31:36.462Z,101373.97
2023-01-07T00:34:04.582Z,101383.16
2023-01-07T00:36:34.950Z,101381.09
2023-01-07T00:39:06.088Z,101381.38
2023-01-07T00:41:33.330Z,101377.13
2023-01-07T00:44:00.430Z,101375.28
2023-01-07T00:46:27.550Z,101368.97
2023-01-07T00:48:54.643Z,101369.09
2023-01-07T00:51:21.577Z,101370.38
2023-01-07T00:53:48.464Z,101365.31
2023-01-07T00:56:19.167Z,101367.75
2023-01-07T00:58:47.351Z,101350.78
2023-01-07T01:01:16.522Z,101357.06
2023-01-07T01:03:43.639Z,101351.91
2023-01-07T01:06:16.370Z,101357.53
2023-01-07T01:08:47.206Z,101349.59
2023-01-07T01:11:16.387Z,101354.31
2023-01-07T01:13:45.082Z,101349.97
2023-01-07T01:16:17.074Z,101355.47
2023-01-07T01:18:46.005Z,101354.31
2023-01-07T01:21:14.995Z,101348.78
2023-01-07T01:23:43.559Z,101353.16
2023-01-07T01:26:17.325Z,101349.59
2023-01-07T01:28:44.989Z,101341.00
2023-01-07T01:31:14.530Z,101338.25
2023-01-07T01:33:48.393Z,101346.53
2023-01-07T01:36:15.990Z,101334.81
2023-01-07T01:38:43.049Z,101349.41
2023-01-07T01:41:12.531Z,101340.31
2023-01-07T01:43:42.322Z,101335.63
2023-01-07T01:46:22.063Z,101339.97
2023-01-07T01:49:01.299Z,101344.66
2023-01-07T01:51:34.813Z,101345.16
2023-01-07T01:54:06.999Z,101337.69
2023-01-07T01:56:36.911Z,101331.81
2023-01-07T01:59:08.587Z,101340.53
2023-01-07T02:01:37.232Z,101333.44
2023-01-07T02:04:17.734Z,101323.22
2023-01-07T02:07:04.729Z,101333.75
2023-01-07T02:09:33.832Z,101325.59
2023-01-07T02:12:38.318Z,101329.19
2023-01-07T02:15:22.277Z,101322.84
2023-01-07T02:18:03.585Z,101331.13
2023-01-07T02:20:42.654Z,101325.59
2023-01-07T02:23:37.483Z,101319.75
2023-01-07T02:26:29.455Z,101321.72
2023-01-07T02:29:33.913Z,101324.47
2023-01-07T02:32:01.255Z,101319.28
2023-01-07T02:35:05.457Z,101318.16
2023-01-07T02:37:56.913Z,101318.97
2023-01-07T02:40:43.767Z,101315.38
2023-01-07T02:43:35.409Z,101324.47
2023-01-07T02:46:17.695Z,101322.16
2023-01-07T02:48:46.522Z,101331.25
2023-01-07T02:51:13.628Z,101336.75
2023-01-07T02:53:46.017Z,101329.63
2023-01-07T02:56:26.151Z,101328.81
2023-01-07T02:59:15.687Z,101328.03
2023-01-07T03:02:17.658Z,101320.53
2023-01-07T03:05:15.306Z,101316.31
2023-01-07T03:07:57.928Z,101312.84
2023-01-07T03:10:51.918Z,101304.25
2023-01-07T03:13:26.202Z,101298.72
2023-01-07T03:15:55.768Z,101303.09
2023-01-07T03:18:27.560Z,101306.31
2023-01-07T03:21:11.515Z,101296.91
2023-01-07T03:23:43.920Z,101294.91
2023-01-07T03:26:15.860Z,101287.00
2023-01-07T03:28:43.145Z,101292.16
2023-01-07T03:31:14.612Z,101288.63
2023-01-07T03:33:56.872Z,101277.13
2023-01-07T03:36:33.177Z,101287.00
2023-01-07T03:39:00.658Z,101277.00
2023-01-07T03:41:47.250Z,101277.94
2023-01-07T03:44:14.335Z,101274.47
2023-01-07T03:46:41.195Z,101287.94
2023-01-07T03:49:08.291Z,101272.66
2023-01-07T03:51:36.708Z,101282.50
2023-01-07T03:54:03.698Z,101272.66
2023-01-07T03:56:30.706Z,101258.38
2023-01-07T03:58:57.678Z,101257.59
2023-01-07T04:01:24.700Z,101259.56
2023-01-07T04:03:52.178Z,101258.38
2023-01-07T04:06:19.438Z,101252.19
2023-01-07T04:08:47.187Z,101256.09
2023-01-07T04:11:14.329Z,101248.16
2023-01-07T04:13:41.203Z,101243.59
2023-01-07T04:16:08.193Z,101252.81
2023-01-07T04:18:35.923Z,101252.69
2023-01-07T04:21:02.897Z,101238.91
2023-01-07T04:23:31.388Z,101234.44
2023-01-07T04:25:59.017Z,101241.91
2023-01-07T04:28:26.800Z,101229.03
2023-01-07T04:30:54.184Z,101239.94
2023-01-07T04:33:22.478Z,101251.66
2023-01-07T04:35:49.383Z,101238.34
2023-01-07T04:38:17.935Z,101231.78
2023-01-07T04:40:45.033Z,101226.63
2023-01-07T04:43:12.987Z,101222.25
2023-01-07T04:45:40.334Z,101224.47
2023-01-07T04:48:08.022Z,101223.06
2023-01-07T04:50:34.957Z,101230.53
2023-01-07T04:53:02.410Z,101230.19
2023-01-07T04:55:29.342Z,101233.06
2023-01-07T04:57:57.083Z,101228.03
2023-01-07T05:00:23.949Z,101221.34
2023-01-07T05:02:53.225Z,101228.03
2023-01-07T05:05:20.257Z,101226.41
2023-01-07T05:07:48.002Z,101225.28
2023-01-07T05:10:17.098Z,101229.63
2023-01-07T05:12:46.178Z,101223.31
2023-01-07T05:15:15.190Z,101228.84
2023-01-07T05:17:43.184Z,101211.94
2023-01-07T05:20:10.906Z,101213.56
2023-01-07T05:22:39.135Z,101210.00
2023-01-07T05:25:06.591Z,101206.88
2023-01-07T05:27:33.473Z,101204.81
2023-01-07T05:30:02.080Z,101203.56
2023-01-07T05:32:29.296Z,101192.75
2023-01-07T05:34:56.346Z,101193.44
2023-01-07T05:37:23.290Z,101185.44
2023-01-07T05:39:50.652Z,101181.31
2023-01-07T05:42:19.644Z,101182.59
2023-01-07T05:44:47.422Z,101183.97
2023-01-07T05:47:14.292Z,101179.84
2023-01-07T05:49:41.466Z,101190.38
2023-01-07T05:52:08.342Z,101182.72
2023-01-07T05:54:35.450Z,101177.09
2023-01-07T05:57:02.427Z,101173.97
2023-01-07T05:59:29.309Z,101167.34
2023-01-07T06:01:56.294Z,101176.41
2023-01-07T06:04:23.288Z,101171.34
2023-01-07T06:06:50.185Z,101166.19
2023-01-07T06:09:17.864Z,101166.41
2023-01-07T06:11:45.036Z,101173.41
2023-01-07T06:14:11.964Z,101155.19
2023-01-07T06:16:38.851Z,101160.13
2023-01-07T06:19:05.698Z,101154.63
2023-01-07T06:21:32.587Z,101156.19
2023-01-07T06:23:59.500Z,101155.31
2023-01-07T06:26:26.428Z,101154.63
2023-01-07T06:28:53.309Z,101148.63
2023-01-07T06:31:20.339Z,101154.13
2023-01-07T06:33:47.487Z,101139.13
2023-01-07T06:36:14.360Z,101139.47
2023-01-07T06:38:41.849Z,101146.44
2023-01-07T06:41:09.345Z,101140.94
2023-01-07T06:43:36.192Z,101140.16
2023-01-07T06:46:03.260Z,101145.66
2023-01-07T06:48:30.216Z,101134.19
2023-01-07T06:50:57.044Z,101132.25
2023-01-07T06:53:24.037Z,101140.16
2023-01-07T06:55:51.844Z,101135.56
2023-01-07T06:58:19.040Z,101130.75
2023-01-07T07:00:46.084Z,101134.88
2023-01-07T07:03:12.986Z,101129.03
2023-01-07T07:05:40.372Z,101132.59
2023-01-07T07:08:07.453Z,101130.88
2023-01-07T07:10:34.569Z,101128.91
2023-01-07T07:13:01.926Z,101125.03
2023-01-07T07:15:29.132Z,101110.78
2023-01-07T07:17:56.093Z,101113.22
2023-01-07T07:20:22.968Z,101119.97
2023-01-07T07:22:50.008Z,101104.25
2023-01-07T07:25:17.841Z,101108.97
2023-01-07T07:27:46.402Z,101113.53
2023-01-07T07:30:15.413Z,101106.34
2023-01-07T07:32:43.388Z,101103.22
2023-01-07T07:35:11.235Z,101098.53
2023-01-07T07:37:38.464Z,101112.72
2023-01-07T07:40:06.850Z,101104.38
2023-01-07T07:43:09.563Z,101105.53
2023-01-07T07:45:20.926Z,101105.28
2023-01-07T07:47:47.876Z,101094.97
2023-01-07T07:50:14.824Z,101098.97
2023-01-07T07:52:41.912Z,101098.53
2023-01-07T07:55:20.723Z,101092.34
2023-01-07T07:57:55.068Z,101081.78
2023-01-07T08:00:22.412Z,101074.81
2023-01-07T08:02:49.375Z,101081.09
2023-01-07T08:05:17.513Z,101082.00
2023-01-07T08:07:44.447Z,101089.25
2023-01-07T08:10:11.394Z,101088.56
2023-01-07T08:12:39.573Z,101092.56
2023-01-07T08:15:08.168Z,101090.25
2023-01-07T08:17:36.585Z,101093.81
2023-01-07T08:20:05.122Z,101092.69
2023-01-07T08:22:33.369Z,101091.06
2023-01-07T08:25:00.798Z,101083.06
2023-01-07T08:27:28.445Z,101084.88
2023-01-07T08:29:56.247Z,101078.81
2023-01-07T08:32:23.428Z,101073.19
2023-01-07T08:34:50.671Z,101071.13
2023-01-07T08:37:17.708Z,101064.00
2023-01-07T08:39:44.587Z,101059.69
2023-01-07T08:42:11.793Z,101060.44
2023-01-07T08:44:38.779Z,101062.06
2023-01-07T08:47:05.686Z,101062.19
2023-01-07T08:49:32.772Z,101066.56
2023-01-07T08:51:59.627Z,101061.94
2023-01-07T08:54:27.413Z,101062.88
2023-01-07T08:56:54.498Z,101066.53
2023-01-07T08:59:21.436Z,101061.03
2023-01-07T09:01:48.571Z,101053.47
2023-01-07T09:04:18.449Z,101065.63
2023-01-07T09:06:45.407Z,101051.03
2023-01-07T09:09:15.116Z,101048.19
2023-01-07T09:11:42.675Z,101043.84
2023-01-07T09:14:09.506Z,101043.03
2023-01-07T09:16:36.626Z,101052.44
2023-01-07T09:19:03.868Z,101037.53
2023-01-07T09:21:30.740Z,101046.59
2023-01-07T09:23:57.591Z,101037.88
2023-01-07T09:26:24.674Z,101047.28
2023-01-07T09:28:51.469Z,101035.91
2023-01-07T09:31:18.540Z,101032.84
2023-01-07T09:33:46.259Z,101041.97
2023-01-07T09:36:13.127Z,101042.78
2023-01-07T09:38:40.608Z,101031.44
2023-01-07T09:41:32.362Z,101030.66
2023-01-07T09:44:14.775Z,101022.38
2023-01-07T09:46:43.872Z,101022.50
2023-01-07T09:49:19.524Z,101030.41
2023-01-07T09:51:54.341Z,101022.50
2023-01-07T09:54:32.527Z,101019.75
2023-01-07T09:56:59.937Z,101021.81
2023-01-07T09:59:27.192Z,101015.13
2023-01-07T10:02:43.565Z,101025.91
2023-01-07T10:05:10.758Z,101011.78
2023-01-07T10:07:45.875Z,101016.28
2023-01-07T10:10:26.284Z,101024.28
2023-01-07T10:13:22.845Z,101015.75
2023-01-07T10:16:13.935Z,101017.13
2023-01-07T10:19:38.374Z,101003.09
2023-01-07T10:22:18.485Z,101008.72
2023-01-07T10:24:51.478Z,100998.16
2023-01-07T10:27:29.010Z,100993.69
2023-01-07T10:30:02.325Z,100988.88
2023-01-07T10:32:36.552Z,100982.47
2023-01-07T10:35:05.415Z,100978.13
2023-01-07T10:37:35.238Z,100974.66
2023-01-07T10:40:28.455Z,100973.28
2023-01-07T10:43:17.241Z,100964.47
2023-01-07T10:45:57.824Z,100943.56
2023-01-07T10:48:40.022Z,100947.78
2023-01-07T10:51:44.292Z,100942.44
2023-01-07T10:54:34.252Z,100944.56
2023-01-07T10:57:07.691Z,100937.91
2023-01-07T10:59:35.893Z,100927.22
2023-01-07T11:02:03.619Z,100937.47
2023-01-07T11:04:30.721Z,100927.13
2023-01-07T11:07:05.889Z,100926.00
2023-01-07T11:09:38.592Z,100917.13
2023-01-07T11:12:17.574Z,100920.13
2023-01-07T11:14:47.506Z,100915.22
2023-01-07T11:17:44.263Z,100903.38
2023-01-07T11:20:12.564Z,100905.31
2023-01-07T11:22:40.264Z,100902.13
2023-01-07T11:25:29.554Z,100894.72
2023-01-07T11:28:02.052Z,100890.88
2023-01-07T11:30:32.953Z,100878.59
2023-01-07T11:33:03.465Z,100863.66
2023-01-07T11:35:30.832Z,100861.75
2023-01-07T11:37:59.507Z,100853.78
2023-01-07T11:40:30.270Z,100853.69
2023-01-07T11:43:02.050Z,100839.09
2023-01-07T11:45:36.540Z,100841.88
2023-01-07T11:48:06.785Z,100826.50
2023-01-07T11:50:35.366Z,100827.34
2023-01-07T11:53:15.976Z,100826.63
2023-01-07T11:55:56.193Z,100822.63
2023-01-07T11:58:29.367Z,100808.03
2023-01-07T12:01:10.135Z,100802.53
2023-01-07T12:03:44.876Z,100797.66
2023-01-07T12:06:23.734Z,100785.75
2023-01-07T12:09:05.907Z,100780.59
2023-01-07T12:11:39.707Z,100778.56
2023-01-07T12:14:11.885Z,100762.47
2023-01-07T12:16:38.899Z,100758.91
2023-01-07T12:19:22.837Z,100753.75
2023-01-07T12:22:26.719Z,100739.09
2023-01-07T12:25:09.559Z,100735.31
2023-01-07T12:27:48.190Z,100732.25
2023-01-07T12:30:47.843Z,100723.00
2023-01-07T12:33:42.734Z,100725.13
2023-01-07T12:36:43.793Z,100719.28
2023-01-07T12:39:35.512Z,100707.53
2023-01-07T12:42:27.363Z,100708.28
2023-01-07T12:45:04.083Z,100703.06
2023-01-07T12:47:40.436Z,100697.06
2023-01-07T12:50:38.761Z,100692.66
2023-01-07T12:53:14.157Z,100688.34
2023-01-07T12:55:49.924Z,100687.97
2023-01-07T12:58:35.865Z,100686.09
2023-01-07T13:01:28.229Z,100683.44
2023-01-07T13:03:58.134Z,100685.03
2023-01-07T13:06:44.976Z,100683.09
2023-01-07T13:09:35.331Z,100676.41
2023-01-07T13:12:43.186Z,100683.44
2023-01-07T13:15:27.470Z,100678.31
2023-01-07T13:17:57.804Z,100665.31
2023-01-07T13:21:03.317Z,100666.88
2023-01-07T13:23:50.403Z,100664.94
2023-01-07T13:26:35.666Z,100651.88
2023-01-07T13:29:20.954Z,100649.84
2023-01-07T13:32:10.695Z,100639.13
2023-01-07T13:34:55.906Z,100633.91
2023-01-07T13:37:41.130Z,100631.09
2023-01-07T13:40:32.796Z,100625.09
2023-01-07T13:43:18.045Z,100623.41
2023-01-07T13:45:56.961Z,100612.25
2023-01-07T13:48:28.691Z,100611.38
2023-01-07T13:51:08.573Z,100605.06
2023-01-07T13:53:40.259Z,100596.00
2023-01-07T13:56:18.976Z,100595.06
2023-01-07T13:58:55.815Z,100585.84
2023-01-07T14:01:27.690Z,100586.91
2023-01-07T14:04:04.009Z,100569.88
2023-01-07T14:06:39.097Z,100565.06
2023-01-07T14:09:11.443Z,100559.88
2023-01-07T14:12:09.669Z,100555.81
2023-01-07T14:14:46.858Z,100545.22
2023-01-07T14:17:37.005Z,100550.31
2023-01-07T14:20:48.814Z,100540.78
2023-01-07T14:23:24.707Z,100536.00
2023-01-07T14:26:36.781Z,100535.94
2023-01-07T14:29:06.259Z,100528.00
2023-01-07T14:31:33.426Z,100522.44
2023-01-07T14:34:07.508Z,100521.56
2023-01-07T14:37:09.836Z,100519.53
2023-01-07T14:39:47.754Z,100520.63
2023-01-07T14:42:20.489Z,100517.88
2023-01-07T14:44:49.719Z,100509.53
2023-01-07T14:47:41.631Z,100505.97
2023-01-07T14:50:33.096Z,100503.22
2023-01-07T14:53:17.089Z,100494.53
2023-01-07T14:56:28.253Z,100501.56
2023-01-07T14:59:27.269Z,100497.13
2023-01-07T15:02:32.746Z,100492.72
2023-01-07T15:05:11.493Z,100494.97
2023-01-07T15:07:41.110Z,100481.56
2023-01-07T15:10:48.645Z,100491.84
2023-01-07T15:13:39.592Z,100481.56
2023-01-07T15:16:11.691Z,100479.19
2023-01-07T15:18:51.160Z,100479.19
2023-01-07T15:21:37.989Z,100481.28
2023-01-07T15:24:53.057Z,100473.44
2023-01-07T15:27:45.735Z,100474.38
2023-01-07T15:30:49.903Z,100474.03
2023-01-07T15:33:17.328Z,100470.47
2023-01-07T15:35:45.014Z,100471.63
2023-01-07T15:38:30.789Z,100473.53
2023-01-07T15:40:59.439Z,100468.44
2023-01-07T15:43:29.070Z,100456.63
2023-01-07T15:46:05.465Z,100457.84
2023-01-07T15:48:32.691Z,100453.59
2023-01-07T15:51:03.173Z,100459.53
2023-01-07T15:53:30.799Z,100456.41
2023-01-07T15:55:59.803Z,100458.44
2023-01-07T15:58:51.929Z,100454.19
2023-01-07T16:01:21.033Z,100441.19
2023-01-07T16:03:50.347Z,100453.88
2023-01-07T16:06:39.623Z,100446.41
2023-01-07T16:09:19.203Z,100436.91
2023-01-07T16:11:46.784Z,100429.00
2023-01-07T16:14:18.995Z,100417.19
2023-01-07T16:16:46.038Z,100426.69
2023-01-07T16:19:18.594Z,100422.34
2023-01-07T16:21:55.055Z,100410.16
2023-01-07T16:24:22.652Z,100409.00
2023-01-07T16:26:55.332Z,100402.75
2023-01-07T16:29:29.366Z,100406.66
2023-01-07T16:31:57.189Z,100394.50
2023-01-07T16:34:24.025Z,100403.91
2023-01-07T16:36:55.172Z,100399.94
2023-01-07T16:39:26.184Z,100392.06
2023-01-07T16:42:17.209Z,100398.78
2023-01-07T16:44:49.462Z,100396.03
2023-01-07T16:47:34.303Z,100383.88
2023-01-07T16:50:17.573Z,100390.88
2023-01-07T16:52:55.734Z,100388.13
2023-01-07T16:55:54.830Z,100384.16
2023-01-07T16:58:30.384Z,100382.94
2023-01-07T17:01:00.653Z,100380.09
2023-01-07T17:03:28.550Z,100367.44
2023-01-07T17:06:04.971Z,100372.94
2023-01-07T17:08:33.214Z,100365.03
2023-01-07T17:11:08.508Z,100362.66
2023-01-07T17:13:39.607Z,100353.19
2023-01-07T17:16:21.351Z,100360.66
2023-01-07T17:18:48.404Z,100355.94
2023-01-07T17:21:39.619Z,100350.06
2023-01-07T17:24:22.171Z,100339.84
2023-01-07T17:26:49.645Z,100332.81
2023-01-07T17:29:19.076Z,100333.94
2023-01-07T17:31:47.926Z,100334.41
2023-01-07T17:34:16.157Z,100332.81
2023-01-07T17:36:43.128Z,100328.44
2023-01-07T17:39:10.103Z,100335.56
2023-01-07T17:41:56.857Z,100324.19
2023-01-07T17:44:24.294Z,100320.63
2023-01-07T17:46:51.547Z,100314.75
2023-01-07T17:49:20.346Z,100317.50
2023-01-07T17:51:53.207Z,100304.53
2023-01-07T17:54:24.777Z,100326.56
2023-01-07T17:56:52.592Z,100320.19
2023-01-07T17:59:23.507Z,100316.88
2023-01-07T18:01:55.479Z,100325.13
2023-01-07T18:04:23.333Z,100313.69
2023-01-07T18:06:50.376Z,100318.41
2023-01-07T18:09:17.657Z,100323.00
2023-01-07T18:12:04.724Z,100305.19
2023-01-07T18:14:33.068Z,100310.94
2023-01-07T18:17:00.060Z,100303.41
2023-01-07T18:19:27.064Z,100303.78
2023-01-07T18:21:54.155Z,100304.16
2023-01-07T18:24:22.115Z,100294.72
2023-01-07T18:26:49.637Z,100310.88
2023-01-07T18:29:17.457Z,100295.50
2023-01-07T18:31:45.324Z,100301.75
2023-01-07T18:34:15.723Z,100281.75
2023-01-07T18:36:43.776Z,100282.56
2023-01-07T18:39:19.021Z,100274.69
2023-01-07T18:41:50.458Z,100271.94
2023-01-07T18:44:21.957Z,100276.63
2023-01-07T18:46:48.898Z,100265.97
2023-01-07T18:49:16.964Z,100256.50
2023-01-07T18:51:46.987Z,100258.16
2023-01-07T18:54:14.330Z,100246.06
2023-01-07T18:56:41.352Z,100256.72
2023-01-07T18:59:08.215Z,100251.97
2023-01-07T19:01:35.201Z,100254.78
2023-01-07T19:04:02.982Z,100248.56
2023-01-07T19:06:30.071Z,100250.97
2023-01-07T19:08:57.014Z,100250.97
2023-01-07T19:11:23.962Z,100254.50
2023-01-07T19:13:50.929Z,100250.56
2023-01-07T19:16:17.978Z,100252.97
2023-01-07T19:18:45.137Z,100252.97
2023-01-07T19:21:13.296Z,100244.34
2023-01-07T19:23:40.568Z,100248.28
2023-01-07T19:26:11.285Z,100244.28
2023-01-07T19:28:38.278Z,100237.19
2023-01-07T19:31:09.179Z,100234.44
2023-01-07T19:33:36.937Z,100233.66
2023-01-07T19:36:12.251Z,100240.69
2023-01-07T19:38:48.485Z,100233.50
2023-01-07T19:41:18.489Z,100233.75
2023-01-07T19:43:46.964Z,100219.28
2023-01-07T19:46:16.113Z,100217.69
2023-01-07T19:48:43.732Z,100223.44
2023-01-07T19:51:11.126Z,100219.88
2023-01-07T19:53:38.995Z,100227.34
2023-01-07T19:56:08.727Z,100234.56
2023-01-07T19:58:36.568Z,100231.50
2023-01-07T20:01:09.468Z,100227.69
2023-01-07T20:03:37.531Z,100221.88
2023-01-07T20:06:12.957Z,100229.03
2023-01-07T20:08:40.704Z,100231.84
2023-01-07T20:11:07.784Z,100224.38
2023-01-07T20:13:37.968Z,100226.34
2023-01-07T20:16:07.271Z,100231.50
2023-01-07T20:18:39.163Z,100217.75
2023-01-07T20:21:06.552Z,100223.25
2023-01-07T20:23:41.744Z,100217.00
2023-01-07T20:26:18.735Z,100222.13
2023-01-07T20:28:46.370Z,100215.47
2023-01-07T20:31:16.324Z,100214.31
2023-01-07T20:33:43.900Z,100206.06
2023-01-07T20:36:17.888Z,100215.91
2023-01-07T20:38:49.746Z,100207.63
2023-01-07T20:41:28.096Z,100209.25
2023-01-07T20:43:59.319Z,100203.34
2023-01-07T20:46:28.298Z,100196.72
2023-01-07T20:48:56.162Z,100193.16
2023-01-07T20:51:23.517Z,100191.63
2023-01-07T20:53:50.769Z,100177.09
2023-01-07T20:56:20.608Z,100184.97
2023-01-07T20:58:48.588Z,100172.00
2023-01-07T21:01:19.472Z,100171.63
2023-01-07T21:03:47.630Z,100175.63
2023-01-07T21:06:20.042Z,100168.53
2023-01-07T21:08:48.095Z,100166.56
2023-01-07T21:11:21.428Z,100175.25
2023-01-07T21:13:49.700Z,100176.47
2023-01-07T21:16:17.704Z,100166.66
2023-01-07T21:18:44.930Z,100159.22
2023-01-07T21:21:16.036Z,100167.91
2023-01-07T21:23:43.429Z,100159.28
2023-01-07T21:26:13.134Z,100166.00
2023-01-07T21:28:40.473Z,100149.47
2023-01-07T21:31:11.368Z,100147.19
2023-01-07T21:33:40.295Z,100142.44
2023-01-07T21:36:09.933Z,100149.94
2023-01-07T21:38:37.678Z,100140.47
2023-01-07T21:41:11.043Z,100146.44
2023-01-07T21:43:38.059Z,100137.38
2023-01-07T21:46:06.256Z,100145.19
2023-01-07T21:48:34.981Z,100131.81
2023-01-07T21:51:04.124Z,100140.06
2023-01-07T21:53:32.331Z,100145.56
2023-01-07T21:56:15.837Z,100141.59
2023-01-07T21:58:43.994Z,100143.91
2023-01-07T22:01:11.785Z,100139.22
2023-01-07T22:03:39.769Z,100140.81
2023-01-07T22:06:15.904Z,100142.03
2023-01-07T22:08:43.035Z,100134.88
2023-01-07T22:11:18.082Z,100132.44
2023-01-07T22:13:49.649Z,100131.69
2023-01-07T22:16:18.001Z,100132.13
2023-01-07T22:18:44.946Z,100134.88
2023-01-07T22:21:13.476Z,100132.91
2023-01-07T22:23:45.957Z,100125.44
2023-01-07T22:26:14.712Z,100116.41
2023-01-07T22:28:42.107Z,100123.03
2023-01-07T22:31:15.917Z,100115.19
2023-01-07T22:33:42.961Z,100114.81
2023-01-07T22:36:12.288Z,100128.66
2023-01-07T22:38:39.728Z,100136.53
2023-01-07T22:41:07.725Z,100124.72
2023-01-07T22:43:35.600Z,100119.16
2023-01-07T22:46:18.857Z,100125.31
2023-01-07T22:48:46.059Z,100117.78
2023-01-07T22:51:28.533Z,100108.72
2023-01-07T22:53:57.851Z,100107.56
2023-01-07T22:56:25.351Z,100107.50
2023-01-07T22:58:52.692Z,100114.97
2023-01-07T23:01:19.958Z,100114.66
2023-01-07T23:03:47.545Z,100116.72
2023-01-07T23:06:15.974Z,100108.13
2023-01-07T23:08:43.548Z,100112.56
2023-01-07T23:11:11.403Z,100104.66
2023-01-07T23:13:38.402Z,100109.84
2023-01-07T23:16:07.681Z,100116.16
2023-01-07T23:18:35.154Z,100095.72
2023-01-07T23:21:04.860Z,100102.06
2023-01-07T23:23:31.793Z,100096.56
2023-01-07T23:25:58.791Z,100094.16
2023-01-07T23:28:25.693Z,100097.31
2023-01-07T23:30:52.551Z,100087.84
2023-01-07T23:33:19.576Z,100087.03
2023-01-07T23:35:47.153Z,100091.00
2023-01-07T23:38:14.083Z,100091.41
2023-01-07T23:40:41.180Z,100094.97
2023-01-07T23:43:08.313Z,100096.56
2023-01-07T23:45:35.346Z,100080.06
2023-01-07T23:48:02.398Z,100096.19
2023-01-07T23:50:29.276Z,100082.84
2023-01-07T23:52:56.122Z,100082.47
2023-01-07T23:55:23.165Z,100088.72
2023-01-07T23:57:50.154Z,100085.56
